sensor_id;sensor_type;location;lat;lon;timestamp;temperature;humidity
23207;DHT22;11773;52.570;13.052;2023-04-06T00:00:07;5.70;99.90
23207;DHT22;11773;52.570;13.052;2023-04-06T00:02:37;5.80;99.90
23207;DHT22;11773;52.570;13.052;2023-04-06T00:05:07;5.70;99.90
23207;DHT22;11773;52.570;13.052;2023-04-06T00:07:37;5.60;99.90
23207;DHT22;11773;52.570;13.052;2023-04-06T00:10:07;5.50;99.90
23207;DHT22;11773;52.570;13.052;2023-04-06T00:12:37;5.30;99.90
23207;DHT22;11773;52.570;13.052;2023-04-06T00:15:07;5.20;99.90
23207;DHT22;11773;52.570;13.052;2023-04-06T00:17:37;5.20;99.90
23207;DHT22;11773;52.570;13.052;2023-04-06T00:20:07;5.20;99.90
23207;DHT22;11773;52.570;13.052;2023-04-06T00:22:37;5.20;99.90
23207;DHT22;11773;52.570;13.052;2023-04-06T00:25:06;5.10;99.90
23207;DHT22;11773;52.570;13.052;2023-04-06T00:27:38;5.20;99.90
23207;DHT22;11773;52.570;13.052;2023-04-06T00:30:08;5.20;99.90
23207;DHT22;11773;52.570;13.052;2023-04-06T00:32:38;5.30;99.90
23207;DHT22;11773;52.570;13.052;2023-04-06T00:35:08;5.30;99.90
23207;DHT22;11773;52.570;13.052;2023-04-06T00:37:38;5.30;99.90
23207;DHT22;11773;52.570;13.052;2023-04-06T00:40:09;5.40;99.90
23207;DHT22;11773;52.570;13.052;2023-04-06T00:42:39;5.20;99.90
23207;DHT22;11773;52.570;13.052;2023-04-06T00:45:09;5.00;99.90
23207;DHT22;11773;52.570;13.052;2023-04-06T00:47:39;4.90;99.90
23207;DHT22;11773;52.570;13.052;2023-04-06T00:50:09;4.90;99.90
23207;DHT22;11773;52.570;13.052;2023-04-06T00:52:38;4.80;99.90
23207;DHT22;11773;52.570;13.052;2023-04-06T00:55:08;5.10;99.90
23207;DHT22;11773;52.570;13.052;2023-04-06T00:57:37;5.00;99.90
23207;DHT22;11773;52.570;13.052;2023-04-06T01:00:07;5.00;99.90
23207;DHT22;11773;52.570;13.052;2023-04-06T01:02:39;5.00;99.90
23207;DHT22;11773;52.570;13.052;2023-04-06T01:05:08;4.90;99.90
23207;DHT22;11773;52.570;13.052;2023-04-06T01:07:38;4.90;99.90
23207;DHT22;11773;52.570;13.052;2023-04-06T01:10:08;4.90;99.90
23207;DHT22;11773;52.570;13.052;2023-04-06T01:12:37;5.00;99.90
23207;DHT22;11773;52.570;13.052;2023-04-06T01:15:08;4.80;99.90
23207;DHT22;11773;52.570;13.052;2023-04-06T01:17:38;4.70;99.90
23207;DHT22;11773;52.570;13.052;2023-04-06T01:20:08;4.80;99.90
23207;DHT22;11773;52.570;13.052;2023-04-06T01:22:37;4.90;99.90
23207;DHT22;11773;52.570;13.052;2023-04-06T01:25:08;4.60;99.90
23207;DHT22;11773;52.570;13.052;2023-04-06T01:27:39;4.60;99.90
23207;DHT22;11773;52.570;13.052;2023-04-06T01:30:08;4.70;99.90
23207;DHT22;11773;52.570;13.052;2023-04-06T01:32:38;4.70;99.90
23207;DHT22;11773;52.570;13.052;2023-04-06T01:35:08;4.70;99.90
23207;DHT22;11773;52.570;13.052;2023-04-06T01:37:37;4.60;99.90
23207;DHT22;11773;52.570;13.052;2023-04-06T01:40:27;4.50;99.90
23207;DHT22;11773;52.570;13.052;2023-04-06T01:42:57;4.50;99.90
23207;DHT22;11773;52.570;13.052;2023-04-06T01:45:27;4.60;99.90
23207;DHT22;11773;52.570;13.052;2023-04-06T01:47:56;4.50;99.90
23207;DHT22;11773;52.570;13.052;2023-04-06T01:50:26;4.40;99.90
23207;DHT22;11773;52.570;13.052;2023-04-06T01:52:55;4.60;99.90
23207;DHT22;11773;52.570;13.052;2023-04-06T01:55:25;4.40;99.90
23207;DHT22;11773;52.570;13.052;2023-04-06T01:57:54;4.40;99.90
23207;DHT22;11773;52.570;13.052;2023-04-06T02:00:24;4.50;99.90
23207;DHT22;11773;52.570;13.052;2023-04-06T02:02:53;4.40;99.90
23207;DHT22;11773;52.570;13.052;2023-04-06T02:05:23;4.40;99.90
23207;DHT22;11773;52.570;13.052;2023-04-06T02:07:53;4.40;99.90
23207;DHT22;11773;52.570;13.052;2023-04-06T02:10:23;4.20;99.90
23207;DHT22;11773;52.570;13.052;2023-04-06T02:12:52;4.20;99.90
23207;DHT22;11773;52.570;13.052;2023-04-06T02:15:22;4.20;99.90
23207;DHT22;11773;52.570;13.052;2023-04-06T02:17:52;4.30;99.90
23207;DHT22;11773;52.570;13.052;2023-04-06T02:20:22;4.20;99.90
23207;DHT22;11773;52.570;13.052;2023-04-06T02:22:51;4.20;99.90
23207;DHT22;11773;52.570;13.052;2023-04-06T02:25:21;4.20;99.90
23207;DHT22;11773;52.570;13.052;2023-04-06T02:27:50;4.20;99.90
23207;DHT22;11773;52.570;13.052;2023-04-06T02:30:20;4.00;99.90
23207;DHT22;11773;52.570;13.052;2023-04-06T02:32:49;3.90;99.90
23207;DHT22;11773;52.570;13.052;2023-04-06T02:35:19;4.10;99.90
23207;DHT22;11773;52.570;13.052;2023-04-06T02:37:48;4.00;99.90
23207;DHT22;11773;52.570;13.052;2023-04-06T02:40:18;4.00;99.90
23207;DHT22;11773;52.570;13.052;2023-04-06T02:42:47;3.90;99.90
23207;DHT22;11773;52.570;13.052;2023-04-06T02:45:17;3.90;99.90
23207;DHT22;11773;52.570;13.052;2023-04-06T02:47:47;3.90;99.90
23207;DHT22;11773;52.570;13.052;2023-04-06T02:50:17;3.90;99.90
23207;DHT22;11773;52.570;13.052;2023-04-06T02:52:46;4.00;99.90
23207;DHT22;11773;52.570;13.052;2023-04-06T02:55:16;3.90;99.90
23207;DHT22;11773;52.570;13.052;2023-04-06T02:57:48;3.90;99.90
23207;DHT22;11773;52.570;13.052;2023-04-06T03:00:18;4.10;99.90
23207;DHT22;11773;52.570;13.052;2023-04-06T03:02:48;3.80;99.90
23207;DHT22;11773;52.570;13.052;2023-04-06T03:05:18;3.70;99.90
23207;DHT22;11773;52.570;13.052;2023-04-06T03:07:47;3.70;99.90
23207;DHT22;11773;52.570;13.052;2023-04-06T03:10:17;3.80;99.90
23207;DHT22;11773;52.570;13.052;2023-04-06T03:12:46;3.70;99.90
23207;DHT22;11773;52.570;13.052;2023-04-06T03:15:16;3.70;99.90
23207;DHT22;11773;52.570;13.052;2023-04-06T03:17:45;3.80;99.90
23207;DHT22;11773;52.570;13.052;2023-04-06T03:20:15;3.70;99.90
23207;DHT22;11773;52.570;13.052;2023-04-06T03:22:44;3.60;99.90
23207;DHT22;11773;52.570;13.052;2023-04-06T03:25:14;3.80;99.90
23207;DHT22;11773;52.570;13.052;2023-04-06T03:27:43;3.80;99.90
23207;DHT22;11773;52.570;13.052;2023-04-06T03:30:13;3.70;99.90
23207;DHT22;11773;52.570;13.052;2023-04-06T03:32:44;3.50;99.90
23207;DHT22;11773;52.570;13.052;2023-04-06T03:35:14;3.40;99.90
23207;DHT22;11773;52.570;13.052;2023-04-06T03:37:43;3.60;99.90
23207;DHT22;11773;52.570;13.052;2023-04-06T03:40:13;3.50;99.90
23207;DHT22;11773;52.570;13.052;2023-04-06T03:42:42;3.60;99.90
23207;DHT22;11773;52.570;13.052;2023-04-06T03:45:12;3.50;99.90
23207;DHT22;11773;52.570;13.052;2023-04-06T03:47:42;3.60;99.90
23207;DHT22;11773;52.570;13.052;2023-04-06T03:50:11;3.40;99.90
23207;DHT22;11773;52.570;13.052;2023-04-06T03:52:41;3.40;99.90
23207;DHT22;11773;52.570;13.052;2023-04-06T03:55:10;3.50;99.90
23207;DHT22;11773;52.570;13.052;2023-04-06T03:57:40;3.50;99.90
23207;DHT22;11773;52.570;13.052;2023-04-06T04:00:10;3.30;99.90
23207;DHT22;11773;52.570;13.052;2023-04-06T04:02:40;3.40;99.90
23207;DHT22;11773;52.570;13.052;2023-04-06T04:05:09;3.30;99.90
23207;DHT22;11773;52.570;13.052;2023-04-06T04:07:39;3.20;99.90
23207;DHT22;11773;52.570;13.052;2023-04-06T04:10:09;3.10;99.90
23207;DHT22;11773;52.570;13.052;2023-04-06T04:12:38;3.30;99.90
23207;DHT22;11773;52.570;13.052;2023-04-06T04:15:08;3.20;99.90
23207;DHT22;11773;52.570;13.052;2023-04-06T04:17:38;3.10;99.90
23207;DHT22;11773;52.570;13.052;2023-04-06T04:20:10;3.20;99.90
23207;DHT22;11773;52.570;13.052;2023-04-06T04:22:40;3.20;99.90
23207;DHT22;11773;52.570;13.052;2023-04-06T04:25:09;3.30;99.90
23207;DHT22;11773;52.570;13.052;2023-04-06T04:27:39;3.30;99.90
23207;DHT22;11773;52.570;13.052;2023-04-06T04:30:08;3.20;99.90
23207;DHT22;11773;52.570;13.052;2023-04-06T04:32:38;3.10;99.90
23207;DHT22;11773;52.570;13.052;2023-04-06T04:35:08;3.00;99.90
23207;DHT22;11773;52.570;13.052;2023-04-06T04:37:40;2.90;99.90
23207;DHT22;11773;52.570;13.052;2023-04-06T04:40:10;2.90;99.90
23207;DHT22;11773;52.570;13.052;2023-04-06T04:42:40;3.00;99.90
23207;DHT22;11773;52.570;13.052;2023-04-06T04:45:09;3.10;99.90
23207;DHT22;11773;52.570;13.052;2023-04-06T04:47:39;3.10;99.90
23207;DHT22;11773;52.570;13.052;2023-04-06T04:50:09;3.10;99.90
23207;DHT22;11773;52.570;13.052;2023-04-06T04:52:38;3.00;99.90
23207;DHT22;11773;52.570;13.052;2023-04-06T04:55:08;3.00;99.90
23207;DHT22;11773;52.570;13.052;2023-04-06T04:57:37;3.20;99.90
23207;DHT22;11773;52.570;13.052;2023-04-06T05:00:07;3.30;99.90
23207;DHT22;11773;52.570;13.052;2023-04-06T05:02:37;3.20;99.90
23207;DHT22;11773;52.570;13.052;2023-04-06T05:05:07;3.10;99.90
23207;DHT22;11773;52.570;13.052;2023-04-06T05:07:37;3.00;99.90
23207;DHT22;11773;52.570;13.052;2023-04-06T05:10:07;3.20;99.90
23207;DHT22;11773;52.570;13.052;2023-04-06T05:12:37;3.00;99.90
23207;DHT22;11773;52.570;13.052;2023-04-06T05:15:08;3.10;99.90
23207;DHT22;11773;52.570;13.052;2023-04-06T05:17:38;3.00;99.90
23207;DHT22;11773;52.570;13.052;2023-04-06T05:20:08;3.10;99.90
23207;DHT22;11773;52.570;13.052;2023-04-06T05:22:38;3.00;99.90
23207;DHT22;11773;52.570;13.052;2023-04-06T05:25:08;2.90;99.90
23207;DHT22;11773;52.570;13.052;2023-04-06T05:27:37;3.00;99.90
23207;DHT22;11773;52.570;13.052;2023-04-06T05:30:07;3.00;99.90
23207;DHT22;11773;52.570;13.052;2023-04-06T05:32:37;3.00;99.90
23207;DHT22;11773;52.570;13.052;2023-04-06T05:35:07;3.10;99.90
23207;DHT22;11773;52.570;13.052;2023-04-06T05:37:36;3.30;99.90
23207;DHT22;11773;52.570;13.052;2023-04-06T05:40:07;3.30;99.90
23207;DHT22;11773;52.570;13.052;2023-04-06T05:42:41;3.30;99.90
23207;DHT22;11773;52.570;13.052;2023-04-06T05:45:11;3.40;99.90
23207;DHT22;11773;52.570;13.052;2023-04-06T05:47:43;3.60;99.90
23207;DHT22;11773;52.570;13.052;2023-04-06T05:50:15;3.60;99.90
23207;DHT22;11773;52.570;13.052;2023-04-06T05:52:45;3.70;99.90
23207;DHT22;11773;52.570;13.052;2023-04-06T05:55:14;3.80;99.90
23207;DHT22;11773;52.570;13.052;2023-04-06T05:57:43;3.90;99.90
23207;DHT22;11773;52.570;13.052;2023-04-06T06:00:13;4.10;99.90
23207;DHT22;11773;52.570;13.052;2023-04-06T06:02:43;4.40;99.90
23207;DHT22;11773;52.570;13.052;2023-04-06T06:05:13;4.60;99.90
23207;DHT22;11773;52.570;13.052;2023-04-06T06:07:42;4.80;99.90
23207;DHT22;11773;52.570;13.052;2023-04-06T06:10:12;4.80;99.90
23207;DHT22;11773;52.570;13.052;2023-04-06T06:12:41;5.00;99.90
23207;DHT22;11773;52.570;13.052;2023-04-06T06:15:11;5.30;99.90
23207;DHT22;11773;52.570;13.052;2023-04-06T06:17:41;5.70;99.90
23207;DHT22;11773;52.570;13.052;2023-04-06T06:20:11;6.20;99.90
23207;DHT22;11773;52.570;13.052;2023-04-06T06:22:40;6.50;99.90
23207;DHT22;11773;52.570;13.052;2023-04-06T06:25:10;6.90;99.90
23207;DHT22;11773;52.570;13.052;2023-04-06T06:27:39;7.00;99.90
23207;DHT22;11773;52.570;13.052;2023-04-06T06:30:10;7.10;99.90
23207;DHT22;11773;52.570;13.052;2023-04-06T06:32:39;7.40;99.90
23207;DHT22;11773;52.570;13.052;2023-04-06T06:35:09;7.40;99.90
23207;DHT22;11773;52.570;13.052;2023-04-06T06:37:38;7.80;99.90
23207;DHT22;11773;52.570;13.052;2023-04-06T06:40:09;7.80;99.90
23207;DHT22;11773;52.570;13.052;2023-04-06T06:42:40;7.80;99.90
23207;DHT22;11773;52.570;13.052;2023-04-06T06:45:10;8.20;99.90
23207;DHT22;11773;52.570;13.052;2023-04-06T06:47:40;8.70;99.90
23207;DHT22;11773;52.570;13.052;2023-04-06T06:50:09;8.60;99.90
23207;DHT22;11773;52.570;13.052;2023-04-06T06:52:39;8.80;99.90
23207;DHT22;11773;52.570;13.052;2023-04-06T06:55:10;9.30;99.90
23207;DHT22;11773;52.570;13.052;2023-04-06T06:57:39;9.30;99.90
23207;DHT22;11773;52.570;13.052;2023-04-06T07:00:10;9.40;99.90
23207;DHT22;11773;52.570;13.052;2023-04-06T07:02:41;9.40;99.90
23207;DHT22;11773;52.570;13.052;2023-04-06T07:05:10;9.30;99.90
23207;DHT22;11773;52.570;13.052;2023-04-06T07:07:42;9.50;99.90
23207;DHT22;11773;52.570;13.052;2023-04-06T07:10:11;9.80;99.90
23207;DHT22;11773;52.570;13.052;2023-04-06T07:12:41;10.10;99.90
23207;DHT22;11773;52.570;13.052;2023-04-06T07:15:10;10.20;99.90
23207;DHT22;11773;52.570;13.052;2023-04-06T07:17:40;10.40;99.90
23207;DHT22;11773;52.570;13.052;2023-04-06T07:20:10;10.60;99.90
23207;DHT22;11773;52.570;13.052;2023-04-06T07:22:40;10.60;99.90
23207;DHT22;11773;52.570;13.052;2023-04-06T07:25:12;10.20;99.90
23207;DHT22;11773;52.570;13.052;2023-04-06T07:27:41;10.80;99.90
23207;DHT22;11773;52.570;13.052;2023-04-06T07:30:11;10.80;99.90
23207;DHT22;11773;52.570;13.052;2023-04-06T07:32:41;11.00;99.90
23207;DHT22;11773;52.570;13.052;2023-04-06T07:35:10;10.80;99.90
23207;DHT22;11773;52.570;13.052;2023-04-06T07:37:40;10.70;99.90
23207;DHT22;11773;52.570;13.052;2023-04-06T07:40:10;10.80;99.90
23207;DHT22;11773;52.570;13.052;2023-04-06T07:42:39;10.60;99.90
23207;DHT22;11773;52.570;13.052;2023-04-06T07:45:09;10.30;99.90
23207;DHT22;11773;52.570;13.052;2023-04-06T07:47:39;10.70;99.90
23207;DHT22;11773;52.570;13.052;2023-04-06T07:50:09;11.00;99.90
23207;DHT22;11773;52.570;13.052;2023-04-06T07:52:39;11.00;99.90
23207;DHT22;11773;52.570;13.052;2023-04-06T07:55:08;10.70;99.90
23207;DHT22;11773;52.570;13.052;2023-04-06T07:57:38;10.70;99.90
23207;DHT22;11773;52.570;13.052;2023-04-06T08:00:08;11.20;99.90
23207;DHT22;11773;52.570;13.052;2023-04-06T08:02:39;11.30;99.90
23207;DHT22;11773;52.570;13.052;2023-04-06T08:05:08;11.00;99.90
23207;DHT22;11773;52.570;13.052;2023-04-06T08:07:38;10.90;99.90
23207;DHT22;11773;52.570;13.052;2023-04-06T08:10:09;10.70;99.90
23207;DHT22;11773;52.570;13.052;2023-04-06T08:12:39;10.80;99.90
23207;DHT22;11773;52.570;13.052;2023-04-06T08:15:08;11.10;99.90
23207;DHT22;11773;52.570;13.052;2023-04-06T08:17:38;10.80;99.90
23207;DHT22;11773;52.570;13.052;2023-04-06T08:20:08;10.90;99.90
23207;DHT22;11773;52.570;13.052;2023-04-06T08:22:39;10.80;99.90
23207;DHT22;11773;52.570;13.052;2023-04-06T08:25:08;11.00;99.90
23207;DHT22;11773;52.570;13.052;2023-04-06T08:27:38;10.70;99.90
23207;DHT22;11773;52.570;13.052;2023-04-06T08:30:08;10.50;99.90
23207;DHT22;11773;52.570;13.052;2023-04-06T08:32:38;10.80;99.90
23207;DHT22;11773;52.570;13.052;2023-04-06T08:35:08;10.80;99.90
23207;DHT22;11773;52.570;13.052;2023-04-06T08:37:38;10.60;99.90
23207;DHT22;11773;52.570;13.052;2023-04-06T08:40:08;10.50;99.90
23207;DHT22;11773;52.570;13.052;2023-04-06T08:42:41;10.70;99.90
23207;DHT22;11773;52.570;13.052;2023-04-06T08:45:14;10.90;99.90
23207;DHT22;11773;52.570;13.052;2023-04-06T08:47:45;10.90;99.90
23207;DHT22;11773;52.570;13.052;2023-04-06T08:50:17;10.90;99.90
23207;DHT22;11773;52.570;13.052;2023-04-06T08:52:48;11.00;99.90
23207;DHT22;11773;52.570;13.052;2023-04-06T08:55:18;11.10;99.90
23207;DHT22;11773;52.570;13.052;2023-04-06T08:57:47;10.80;99.90
23207;DHT22;11773;52.570;13.052;2023-04-06T09:00:18;11.00;99.90
23207;DHT22;11773;52.570;13.052;2023-04-06T09:02:49;11.00;99.90
23207;DHT22;11773;52.570;13.052;2023-04-06T09:05:23;11.00;99.90
23207;DHT22;11773;52.570;13.052;2023-04-06T09:07:54;11.10;99.90
23207;DHT22;11773;52.570;13.052;2023-04-06T09:10:23;10.90;99.90
23207;DHT22;11773;52.570;13.052;2023-04-06T09:13:07;11.10;99.90
23207;DHT22;11773;52.570;13.052;2023-04-06T09:15:37;11.00;99.90
23207;DHT22;11773;52.570;13.052;2023-04-06T09:18:08;11.00;99.90
23207;DHT22;11773;52.570;13.052;2023-04-06T09:20:38;11.20;99.90
23207;DHT22;11773;52.570;13.052;2023-04-06T09:23:18;11.30;99.90
23207;DHT22;11773;52.570;13.052;2023-04-06T09:25:47;11.50;99.90
23207;DHT22;11773;52.570;13.052;2023-04-06T09:28:17;11.70;99.90
23207;DHT22;11773;52.570;13.052;2023-04-06T09:30:50;11.60;99.90
23207;DHT22;11773;52.570;13.052;2023-04-06T09:33:23;11.90;99.90
23207;DHT22;11773;52.570;13.052;2023-04-06T09:36:13;12.00;99.90
23207;DHT22;11773;52.570;13.052;2023-04-06T09:38:55;11.90;99.90
23207;DHT22;11773;52.570;13.052;2023-04-06T09:41:27;11.90;99.90
23207;DHT22;11773;52.570;13.052;2023-04-06T09:44:06;11.90;99.90
23207;DHT22;11773;52.570;13.052;2023-04-06T09:46:39;11.60;99.90
23207;DHT22;11773;52.570;13.052;2023-04-06T09:49:12;11.80;99.90
23207;DHT22;11773;52.570;13.052;2023-04-06T09:51:47;12.00;99.90
23207;DHT22;11773;52.570;13.052;2023-04-06T09:54:22;11.90;99.90
23207;DHT22;11773;52.570;13.052;2023-04-06T10:08:13;11.80;99.90
23207;DHT22;11773;52.570;13.052;2023-04-06T10:10:43;12.10;99.90
23207;DHT22;11773;52.570;13.052;2023-04-06T10:13:14;12.20;99.90
23207;DHT22;11773;52.570;13.052;2023-04-06T10:15:45;12.10;99.90
23207;DHT22;11773;52.570;13.052;2023-04-06T10:18:16;12.00;99.90
23207;DHT22;11773;52.570;13.052;2023-04-06T10:21:09;12.00;99.90
23207;DHT22;11773;52.570;13.052;2023-04-06T10:23:49;11.90;98.10
23207;DHT22;11773;52.570;13.052;2023-04-06T10:26:24;12.00;98.80
23207;DHT22;11773;52.570;13.052;2023-04-06T10:28:54;12.20;99.90
23207;DHT22;11773;52.570;13.052;2023-04-06T10:31:27;12.50;99.90
23207;DHT22;11773;52.570;13.052;2023-04-06T10:33:58;12.20;99.90
23207;DHT22;11773;52.570;13.052;2023-04-06T10:36:34;12.30;98.90
23207;DHT22;11773;52.570;13.052;2023-04-06T10:39:05;12.30;98.40
23207;DHT22;11773;52.570;13.052;2023-04-06T10:41:45;12.30;99.40
23207;DHT22;11773;52.570;13.052;2023-04-06T10:44:23;12.60;99.60
23207;DHT22;11773;52.570;13.052;2023-04-06T10:46:54;12.80;99.90
23207;DHT22;11773;52.570;13.052;2023-04-06T10:49:25;12.70;98.40
23207;DHT22;11773;52.570;13.052;2023-04-06T10:51:56;12.60;98.90
23207;DHT22;11773;52.570;13.052;2023-04-06T10:54:26;12.60;98.40
23207;DHT22;11773;52.570;13.052;2023-04-06T10:56:57;12.70;99.90
23207;DHT22;11773;52.570;13.052;2023-04-06T10:59:29;12.80;99.60
23207;DHT22;11773;52.570;13.052;2023-04-06T11:01:58;12.70;99.10
23207;DHT22;11773;52.570;13.052;2023-04-06T11:04:28;12.70;98.10
23207;DHT22;11773;52.570;13.052;2023-04-06T11:06:58;12.70;98.40
23207;DHT22;11773;52.570;13.052;2023-04-06T11:09:29;12.80;98.10
23207;DHT22;11773;52.570;13.052;2023-04-06T11:12:03;12.50;97.40
23207;DHT22;11773;52.570;13.052;2023-04-06T11:14:33;12.80;98.20
23207;DHT22;11773;52.570;13.052;2023-04-06T11:17:03;12.70;98.20
23207;DHT22;11773;52.570;13.052;2023-04-06T11:19:34;13.10;99.10
23207;DHT22;11773;52.570;13.052;2023-04-06T11:22:08;13.20;98.40
23207;DHT22;11773;52.570;13.052;2023-04-06T11:24:37;12.90;98.10
23207;DHT22;11773;52.570;13.052;2023-04-06T11:27:07;13.00;97.50
23207;DHT22;11773;52.570;13.052;2023-04-06T11:29:37;13.00;98.20
23207;DHT22;11773;52.570;13.052;2023-04-06T11:32:08;12.90;96.60
23207;DHT22;11773;52.570;13.052;2023-04-06T11:34:39;13.00;97.20
23207;DHT22;11773;52.570;13.052;2023-04-06T11:37:11;13.00;97.60
23207;DHT22;11773;52.570;13.052;2023-04-06T11:39:51;13.10;98.10
23207;DHT22;11773;52.570;13.052;2023-04-06T11:42:26;13.30;96.90
23207;DHT22;11773;52.570;13.052;2023-04-06T11:44:58;13.00;96.30
23207;DHT22;11773;52.570;13.052;2023-04-06T11:50:31;12.90;98.00
23207;DHT22;11773;52.570;13.052;2023-04-06T11:53:02;12.70;96.80
23207;DHT22;11773;52.570;13.052;2023-04-06T11:55:37;12.70;97.50
23207;DHT22;11773;52.570;13.052;2023-04-06T11:58:07;13.00;98.00
23207;DHT22;11773;52.570;13.052;2023-04-06T12:00:37;12.70;96.40
23207;DHT22;11773;52.570;13.052;2023-04-06T12:03:06;12.80;96.80
23207;DHT22;11773;52.570;13.052;2023-04-06T12:05:36;12.80;96.20
23207;DHT22;11773;52.570;13.052;2023-04-06T12:08:06;12.80;97.10
23207;DHT22;11773;52.570;13.052;2023-04-06T12:10:37;12.70;96.40
23207;DHT22;11773;52.570;13.052;2023-04-06T12:13:06;12.70;96.60
23207;DHT22;11773;52.570;13.052;2023-04-06T12:15:36;12.80;97.40
23207;DHT22;11773;52.570;13.052;2023-04-06T12:18:05;12.80;97.20
23207;DHT22;11773;52.570;13.052;2023-04-06T12:20:35;12.90;96.80
23207;DHT22;11773;52.570;13.052;2023-04-06T12:23:05;12.90;96.90
23207;DHT22;11773;52.570;13.052;2023-04-06T12:25:34;13.10;96.90
23207;DHT22;11773;52.570;13.052;2023-04-06T12:28:04;12.80;96.40
23207;DHT22;11773;52.570;13.052;2023-04-06T12:30:35;12.90;96.50
23207;DHT22;11773;52.570;13.052;2023-04-06T12:33:04;12.90;97.10
23207;DHT22;11773;52.570;13.052;2023-04-06T12:35:34;12.80;96.70
23207;DHT22;11773;52.570;13.052;2023-04-06T12:38:05;12.90;97.10
23207;DHT22;11773;52.570;13.052;2023-04-06T12:40:38;12.90;97.50
23207;DHT22;11773;52.570;13.052;2023-04-06T12:43:07;12.90;96.20
23207;DHT22;11773;52.570;13.052;2023-04-06T12:45:37;12.90;95.80
23207;DHT22;11773;52.570;13.052;2023-04-06T12:48:08;12.80;96.80
23207;DHT22;11773;52.570;13.052;2023-04-06T12:50:37;12.80;96.90
23207;DHT22;11773;52.570;13.052;2023-04-06T12:53:07;13.20;97.00
23207;DHT22;11773;52.570;13.052;2023-04-06T12:55:37;13.20;97.20
23207;DHT22;11773;52.570;13.052;2023-04-06T12:58:06;13.10;96.00
23207;DHT22;11773;52.570;13.052;2023-04-06T13:00:36;13.20;96.20
23207;DHT22;11773;52.570;13.052;2023-04-06T13:03:05;13.30;96.70
23207;DHT22;11773;52.570;13.052;2023-04-06T13:05:35;13.30;96.80
23207;DHT22;11773;52.570;13.052;2023-04-06T13:08:04;13.40;97.40
23207;DHT22;11773;52.570;13.052;2023-04-06T13:10:34;13.50;98.40
23207;DHT22;11773;52.570;13.052;2023-04-06T13:13:03;13.50;96.00
23207;DHT22;11773;52.570;13.052;2023-04-06T13:15:33;13.10;95.70
23207;DHT22;11773;52.570;13.052;2023-04-06T13:18:04;13.10;95.50
23207;DHT22;11773;52.570;13.052;2023-04-06T13:20:33;13.00;96.00
23207;DHT22;11773;52.570;13.052;2023-04-06T13:23:03;13.10;96.20
23207;DHT22;11773;52.570;13.052;2023-04-06T13:25:33;12.90;95.10
23207;DHT22;11773;52.570;13.052;2023-04-06T13:28:02;13.00;95.80
23207;DHT22;11773;52.570;13.052;2023-04-06T13:30:32;13.10;96.30
23207;DHT22;11773;52.570;13.052;2023-04-06T13:33:02;13.00;96.50
23207;DHT22;11773;52.570;13.052;2023-04-06T13:35:32;13.10;97.30
23207;DHT22;11773;52.570;13.052;2023-04-06T13:38:03;13.00;96.40
23207;DHT22;11773;52.570;13.052;2023-04-06T13:40:32;12.90;96.30
23207;DHT22;11773;52.570;13.052;2023-04-06T13:43:02;12.80;95.60
23207;DHT22;11773;52.570;13.052;2023-04-06T13:45:32;12.90;96.50
23207;DHT22;11773;52.570;13.052;2023-04-06T13:48:01;12.90;95.50
23207;DHT22;11773;52.570;13.052;2023-04-06T13:50:31;12.80;96.10
23207;DHT22;11773;52.570;13.052;2023-04-06T13:53:02;12.90;96.10
23207;DHT22;11773;52.570;13.052;2023-04-06T13:55:31;12.80;95.90
23207;DHT22;11773;52.570;13.052;2023-04-06T13:58:01;12.90;96.40
23207;DHT22;11773;52.570;13.052;2023-04-06T14:00:30;13.10;96.30
23207;DHT22;11773;52.570;13.052;2023-04-06T14:03:00;13.10;96.20
23207;DHT22;11773;52.570;13.052;2023-04-06T14:05:33;13.10;96.00
23207;DHT22;11773;52.570;13.052;2023-04-06T14:08:03;13.00;95.50
23207;DHT22;11773;52.570;13.052;2023-04-06T14:10:37;13.00;95.10
23207;DHT22;11773;52.570;13.052;2023-04-06T14:13:08;13.10;96.00
23207;DHT22;11773;52.570;13.052;2023-04-06T14:15:38;13.00;95.00
23207;DHT22;11773;52.570;13.052;2023-04-06T14:18:08;13.10;95.60
23207;DHT22;11773;52.570;13.052;2023-04-06T14:20:38;13.10;96.90
23207;DHT22;11773;52.570;13.052;2023-04-06T14:23:07;13.30;97.10
23207;DHT22;11773;52.570;13.052;2023-04-06T14:25:37;13.30;96.70
23207;DHT22;11773;52.570;13.052;2023-04-06T14:28:06;13.30;96.20
23207;DHT22;11773;52.570;13.052;2023-04-06T14:30:36;13.30;96.10
23207;DHT22;11773;52.570;13.052;2023-04-06T14:33:05;13.40;95.70
23207;DHT22;11773;52.570;13.052;2023-04-06T14:35:39;13.20;96.20
23207;DHT22;11773;52.570;13.052;2023-04-06T14:38:09;13.20;95.30
23207;DHT22;11773;52.570;13.052;2023-04-06T14:40:38;13.00;95.70
23207;DHT22;11773;52.570;13.052;2023-04-06T14:43:08;13.10;94.90
23207;DHT22;11773;52.570;13.052;2023-04-06T14:45:38;13.20;96.90
23207;DHT22;11773;52.570;13.052;2023-04-06T14:48:07;13.30;99.50
23207;DHT22;11773;52.570;13.052;2023-04-06T14:50:39;13.30;96.20
23207;DHT22;11773;52.570;13.052;2023-04-06T14:53:09;13.30;95.70
23207;DHT22;11773;52.570;13.052;2023-04-06T14:55:39;13.10;95.60
23207;DHT22;11773;52.570;13.052;2023-04-06T14:58:09;13.10;95.30
23207;DHT22;11773;52.570;13.052;2023-04-06T15:00:39;13.10;95.20
23207;DHT22;11773;52.570;13.052;2023-04-06T15:03:08;13.10;95.00
23207;DHT22;11773;52.570;13.052;2023-04-06T15:05:38;13.10;95.50
23207;DHT22;11773;52.570;13.052;2023-04-06T15:08:08;13.10;97.20
23207;DHT22;11773;52.570;13.052;2023-04-06T15:10:39;13.10;94.90
23207;DHT22;11773;52.570;13.052;2023-04-06T15:13:09;13.10;96.50
23207;DHT22;11773;52.570;13.052;2023-04-06T15:15:38;13.10;94.70
23207;DHT22;11773;52.570;13.052;2023-04-06T15:18:10;13.20;95.50
23207;DHT22;11773;52.570;13.052;2023-04-06T15:20:40;13.10;97.50
23207;DHT22;11773;52.570;13.052;2023-04-06T15:23:11;13.20;96.20
23207;DHT22;11773;52.570;13.052;2023-04-06T15:25:40;13.10;95.80
23207;DHT22;11773;52.570;13.052;2023-04-06T15:28:10;13.00;94.30
23207;DHT22;11773;52.570;13.052;2023-04-06T15:30:39;12.90;95.10
23207;DHT22;11773;52.570;13.052;2023-04-06T15:33:09;13.00;95.70
23207;DHT22;11773;52.570;13.052;2023-04-06T15:35:38;12.80;95.00
23207;DHT22;11773;52.570;13.052;2023-04-06T15:38:10;12.90;95.40
23207;DHT22;11773;52.570;13.052;2023-04-06T15:40:42;12.90;96.10
23207;DHT22;11773;52.570;13.052;2023-04-06T15:43:13;13.00;96.60
23207;DHT22;11773;52.570;13.052;2023-04-06T15:45:44;12.90;96.20
23207;DHT22;11773;52.570;13.052;2023-04-06T15:48:14;12.90;95.10
23207;DHT22;11773;52.570;13.052;2023-04-06T15:50:43;12.90;95.10
23207;DHT22;11773;52.570;13.052;2023-04-06T15:53:14;12.70;94.80
23207;DHT22;11773;52.570;13.052;2023-04-06T15:55:43;12.70;94.90